sensor_id;sensor_type;location;lat;lon;timestamp;P1;durP1;ratioP1;P2;durP2;ratioP2
7729;SDS011;3908;52.310;7.230;2023-08-06T00:00:14;63.60;;;60.40;;
7729;SDS011;3908;52.310;7.230;2023-08-06T00:03:00;60.60;;;57.30;;
7729;SDS011;3908;52.310;7.230;2023-08-06T00:05:48;53.63;;;50.70;;
7729;SDS011;3908;52.310;7.230;2023-08-06T00:08:35;50.30;;;47.40;;
7729;SDS011;3908;52.310;7.230;2023-08-06T00:11:22;48.83;;;46.13;;
7729;SDS011;3908;52.310;7.230;2023-08-06T00:14:09;56.53;;;53.40;;
7729;SDS011;3908;52.310;7.230;2023-08-06T00:16:56;63.63;;;60.30;;
7729;SDS011;3908;52.310;7.230;2023-08-06T00:19:42;55.80;;;52.63;;
7729;SDS011;3908;52.310;7.230;2023-08-06T00:22:31;58.70;;;55.07;;
7729;SDS011;3908;52.310;7.230;2023-08-06T00:25:18;65.87;;;62.37;;
7729;SDS011;3908;52.310;7.230;2023-08-06T00:28:05;67.07;;;63.37;;
7729;SDS011;3908;52.310;7.230;2023-08-06T00:30:54;73.63;;;69.50;;
7729;SDS011;3908;52.310;7.230;2023-08-06T00:33:41;62.83;;;59.10;;
7729;SDS011;3908;52.310;7.230;2023-08-06T00:36:28;104.90;;;99.50;;
7729;SDS011;3908;52.310;7.230;2023-08-06T00:39:16;101.30;;;95.97;;
7729;SDS011;3908;52.310;7.230;2023-08-06T00:42:03;89.90;;;85.30;;
7729;SDS011;3908;52.310;7.230;2023-08-06T00:44:50;105.40;;;100.00;;
7729;SDS011;3908;52.310;7.230;2023-08-06T00:47:37;75.70;;;71.50;;
7729;SDS011;3908;52.310;7.230;2023-08-06T00:50:24;115.53;;;109.83;;
7729;SDS011;3908;52.310;7.230;2023-08-06T00:53:11;140.17;;;133.23;;
7729;SDS011;3908;52.310;7.230;2023-08-06T00:55:59;119.63;;;113.20;;
7729;SDS011;3908;52.310;7.230;2023-08-06T00:58:46;100.17;;;95.13;;
7729;SDS011;3908;52.310;7.230;2023-08-06T01:01:33;111.53;;;105.90;;
7729;SDS011;3908;52.310;7.230;2023-08-06T01:04:20;131.30;;;124.53;;
7729;SDS011;3908;52.310;7.230;2023-08-06T01:07:09;134.90;;;128.00;;
7729;SDS011;3908;52.310;7.230;2023-08-06T01:10:08;130.00;;;123.33;;
7729;SDS011;3908;52.310;7.230;2023-08-06T01:13:02;132.73;;;126.03;;
7729;SDS011;3908;52.310;7.230;2023-08-06T01:15:51;131.60;;;124.77;;
7729;SDS011;3908;52.310;7.230;2023-08-06T01:18:39;148.27;;;140.77;;
7729;SDS011;3908;52.310;7.230;2023-08-06T01:21:28;170.33;;;161.17;;
7729;SDS011;3908;52.310;7.230;2023-08-06T01:24:15;164.60;;;155.60;;
7729;SDS011;3908;52.310;7.230;2023-08-06T01:27:03;161.80;;;153.13;;
7729;SDS011;3908;52.310;7.230;2023-08-06T01:29:54;142.63;;;135.27;;
7729;SDS011;3908;52.310;7.230;2023-08-06T01:32:44;124.63;;;117.87;;
7729;SDS011;3908;52.310;7.230;2023-08-06T01:35:32;137.23;;;129.83;;
7729;SDS011;3908;52.310;7.230;2023-08-06T01:38:20;146.73;;;138.97;;
7729;SDS011;3908;52.310;7.230;2023-08-06T01:41:08;165.53;;;156.67;;
7729;SDS011;3908;52.310;7.230;2023-08-06T01:43:54;170.63;;;161.20;;
7729;SDS011;3908;52.310;7.230;2023-08-06T01:46:41;185.73;;;175.67;;
7729;SDS011;3908;52.310;7.230;2023-08-06T01:49:28;174.77;;;165.20;;
7729;SDS011;3908;52.310;7.230;2023-08-06T01:52:15;190.77;;;180.60;;
7729;SDS011;3908;52.310;7.230;2023-08-06T01:55:04;204.50;;;193.43;;
7729;SDS011;3908;52.310;7.230;2023-08-06T01:57:50;212.83;;;201.60;;
7729;SDS011;3908;52.310;7.230;2023-08-06T02:00:37;226.03;;;214.03;;
7729;SDS011;3908;52.310;7.230;2023-08-06T02:03:24;206.30;;;194.80;;
7729;SDS011;3908;52.310;7.230;2023-08-06T02:06:11;184.83;;;174.77;;
7729;SDS011;3908;52.310;7.230;2023-08-06T02:08:57;171.50;;;162.03;;
7729;SDS011;3908;52.310;7.230;2023-08-06T02:11:46;180.30;;;170.43;;
7729;SDS011;3908;52.310;7.230;2023-08-06T02:14:32;167.37;;;158.43;;
7729;SDS011;3908;52.310;7.230;2023-08-06T02:17:19;165.23;;;156.17;;
7729;SDS011;3908;52.310;7.230;2023-08-06T02:20:06;148.23;;;139.73;;
7729;SDS011;3908;52.310;7.230;2023-08-06T02:22:53;168.77;;;159.80;;
7729;SDS011;3908;52.310;7.230;2023-08-06T02:25:40;162.07;;;153.23;;
7729;SDS011;3908;52.310;7.230;2023-08-06T02:28:28;165.10;;;155.97;;
7729;SDS011;3908;52.310;7.230;2023-08-06T02:31:15;154.67;;;146.10;;
7729;SDS011;3908;52.310;7.230;2023-08-06T02:34:02;161.37;;;152.70;;
7729;SDS011;3908;52.310;7.230;2023-08-06T02:36:49;141.47;;;133.90;;
7729;SDS011;3908;52.310;7.230;2023-08-06T02:39:36;142.00;;;134.63;;
7729;SDS011;3908;52.310;7.230;2023-08-06T02:42:24;116.83;;;110.77;;
7729;SDS011;3908;52.310;7.230;2023-08-06T02:45:13;107.33;;;101.90;;
7729;SDS011;3908;52.310;7.230;2023-08-06T02:48:00;109.63;;;103.87;;
7729;SDS011;3908;52.310;7.230;2023-08-06T02:50:47;108.87;;;103.17;;
7729;SDS011;3908;52.310;7.230;2023-08-06T02:53:34;109.43;;;103.07;;
7729;SDS011;3908;52.310;7.230;2023-08-06T02:56:21;106.47;;;100.53;;
7729;SDS011;3908;52.310;7.230;2023-08-06T02:59:08;119.70;;;113.00;;
7729;SDS011;3908;52.310;7.230;2023-08-06T03:01:56;119.53;;;112.77;;
7729;SDS011;3908;52.310;7.230;2023-08-06T03:04:43;124.47;;;117.73;;
7729;SDS011;3908;52.310;7.230;2023-08-06T03:07:29;105.60;;;99.13;;
7729;SDS011;3908;52.310;7.230;2023-08-06T03:10:16;124.00;;;117.30;;
7729;SDS011;3908;52.310;7.230;2023-08-06T03:13:03;115.07;;;108.10;;
7729;SDS011;3908;52.310;7.230;2023-08-06T03:15:53;116.37;;;110.13;;
7729;SDS011;3908;52.310;7.230;2023-08-06T03:18:42;109.30;;;103.47;;
7729;SDS011;3908;52.310;7.230;2023-08-06T03:21:28;111.50;;;105.33;;
7729;SDS011;3908;52.310;7.230;2023-08-06T03:24:15;103.73;;;98.10;;
7729;SDS011;3908;52.310;7.230;2023-08-06T03:27:02;114.97;;;108.83;;
7729;SDS011;3908;52.310;7.230;2023-08-06T03:29:49;117.30;;;110.70;;
7729;SDS011;3908;52.310;7.230;2023-08-06T03:32:36;132.93;;;125.67;;
7729;SDS011;3908;52.310;7.230;2023-08-06T03:35:24;125.67;;;118.97;;
7729;SDS011;3908;52.310;7.230;2023-08-06T03:38:11;129.10;;;121.90;;
7729;SDS011;3908;52.310;7.230;2023-08-06T03:40:58;124.80;;;117.90;;
7729;SDS011;3908;52.310;7.230;2023-08-06T03:43:44;110.13;;;104.07;;
7729;SDS011;3908;52.310;7.230;2023-08-06T03:46:31;120.83;;;114.33;;
7729;SDS011;3908;52.310;7.230;2023-08-06T03:49:19;113.37;;;107.23;;
7729;SDS011;3908;52.310;7.230;2023-08-06T03:52:07;94.53;;;89.27;;
7729;SDS011;3908;52.310;7.230;2023-08-06T03:54:54;104.17;;;98.40;;
7729;SDS011;3908;52.310;7.230;2023-08-06T03:57:41;108.37;;;102.40;;
7729;SDS011;3908;52.310;7.230;2023-08-06T04:00:27;101.80;;;95.97;;
7729;SDS011;3908;52.310;7.230;2023-08-06T04:03:14;101.17;;;95.37;;
7729;SDS011;3908;52.310;7.230;2023-08-06T04:06:02;103.93;;;97.77;;
7729;SDS011;3908;52.310;7.230;2023-08-06T04:08:50;115.10;;;108.77;;
7729;SDS011;3908;52.310;7.230;2023-08-06T04:11:37;107.50;;;101.17;;
7729;SDS011;3908;52.310;7.230;2023-08-06T04:14:23;89.43;;;84.40;;
7729;SDS011;3908;52.310;7.230;2023-08-06T04:17:10;101.57;;;95.57;;
7729;SDS011;3908;52.310;7.230;2023-08-06T04:19:57;113.50;;;105.87;;
7729;SDS011;3908;52.310;7.230;2023-08-06T04:22:44;145.50;;;137.13;;
7729;SDS011;3908;52.310;7.230;2023-08-06T04:25:32;178.87;;;168.50;;
7729;SDS011;3908;52.310;7.230;2023-08-06T04:28:19;179.37;;;169.17;;
7729;SDS011;3908;52.310;7.230;2023-08-06T04:31:06;217.73;;;205.63;;
7729;SDS011;3908;52.310;7.230;2023-08-06T04:33:52;235.43;;;222.23;;
7729;SDS011;3908;52.310;7.230;2023-08-06T04:36:39;244.57;;;231.00;;
7729;SDS011;3908;52.310;7.230;2023-08-06T04:39:26;237.90;;;224.83;;
7729;SDS011;3908;52.310;7.230;2023-08-06T04:42:14;187.67;;;177.70;;
7729;SDS011;3908;52.310;7.230;2023-08-06T04:45:01;155.27;;;146.23;;
7729;SDS011;3908;52.310;7.230;2023-08-06T04:47:48;120.60;;;113.37;;
7729;SDS011;3908;52.310;7.230;2023-08-06T04:50:34;118.37;;;110.73;;
7729;SDS011;3908;52.310;7.230;2023-08-06T04:53:21;102.63;;;96.47;;
7729;SDS011;3908;52.310;7.230;2023-08-06T04:56:08;99.57;;;93.43;;
7729;SDS011;3908;52.310;7.230;2023-08-06T04:58:56;103.90;;;98.00;;
7729;SDS011;3908;52.310;7.230;2023-08-06T05:01:43;102.30;;;95.73;;
7729;SDS011;3908;52.310;7.230;2023-08-06T05:04:30;95.83;;;89.97;;
7729;SDS011;3908;52.310;7.230;2023-08-06T05:07:16;127.20;;;118.50;;
7729;SDS011;3908;52.310;7.230;2023-08-06T05:10:03;125.57;;;118.07;;
7729;SDS011;3908;52.310;7.230;2023-08-06T05:12:50;117.17;;;109.83;;
7729;SDS011;3908;52.310;7.230;2023-08-06T05:15:38;111.03;;;104.00;;
7729;SDS011;3908;52.310;7.230;2023-08-06T05:18:27;107.63;;;101.07;;
7729;SDS011;3908;52.310;7.230;2023-08-06T05:21:16;106.47;;;99.70;;
7729;SDS011;3908;52.310;7.230;2023-08-06T05:24:02;123.27;;;116.60;;
7729;SDS011;3908;52.310;7.230;2023-08-06T05:26:49;132.20;;;124.23;;
7729;SDS011;3908;52.310;7.230;2023-08-06T05:29:36;166.30;;;156.37;;
7729;SDS011;3908;52.310;7.230;2023-08-06T05:32:24;151.87;;;143.63;;
7729;SDS011;3908;52.310;7.230;2023-08-06T05:35:11;70.00;;;66.00;;
7729;SDS011;3908;52.310;7.230;2023-08-06T05:37:58;135.90;;;129.13;;
7729;SDS011;3908;52.310;7.230;2023-08-06T05:40:44;172.37;;;164.33;;
7729;SDS011;3908;52.310;7.230;2023-08-06T05:43:31;113.57;;;107.67;;
7729;SDS011;3908;52.310;7.230;2023-08-06T05:46:18;117.43;;;110.30;;
7729;SDS011;3908;52.310;7.230;2023-08-06T05:49:06;152.73;;;143.30;;
7729;SDS011;3908;52.310;7.230;2023-08-06T05:51:53;189.27;;;176.37;;
7729;SDS011;3908;52.310;7.230;2023-08-06T05:54:39;234.67;;;221.40;;
7729;SDS011;3908;52.310;7.230;2023-08-06T05:57:27;217.30;;;205.80;;
7729;SDS011;3908;52.310;7.230;2023-08-06T06:00:14;211.03;;;200.87;;
7729;SDS011;3908;52.310;7.230;2023-08-06T06:03:01;141.70;;;135.03;;
7729;SDS011;3908;52.310;7.230;2023-08-06T06:05:49;175.37;;;167.17;;
7729;SDS011;3908;52.310;7.230;2023-08-06T06:08:36;193.70;;;183.70;;
7729;SDS011;3908;52.310;7.230;2023-08-06T06:11:23;157.43;;;149.80;;
7729;SDS011;3908;52.310;7.230;2023-08-06T06:14:09;113.00;;;107.77;;
7729;SDS011;3908;52.310;7.230;2023-08-06T06:16:56;115.67;;;110.33;;
7729;SDS011;3908;52.310;7.230;2023-08-06T06:19:43;75.53;;;71.43;;
7729;SDS011;3908;52.310;7.230;2023-08-06T06:22:31;78.80;;;74.80;;
7729;SDS011;3908;52.310;7.230;2023-08-06T06:25:18;80.07;;;76.17;;
7729;SDS011;3908;52.310;7.230;2023-08-06T06:28:04;78.73;;;74.83;;
7729;SDS011;3908;52.310;7.230;2023-08-06T06:30:51;58.87;;;55.57;;
7729;SDS011;3908;52.310;7.230;2023-08-06T06:33:38;48.93;;;46.00;;
7729;SDS011;3908;52.310;7.230;2023-08-06T06:36:25;48.73;;;45.93;;
7729;SDS011;3908;52.310;7.230;2023-08-06T06:39:13;53.03;;;50.07;;
7729;SDS011;3908;52.310;7.230;2023-08-06T06:41:59;90.57;;;86.10;;
7729;SDS011;3908;52.310;7.230;2023-08-06T06:44:46;86.20;;;81.67;;
7729;SDS011;3908;52.310;7.230;2023-08-06T06:47:33;89.73;;;85.23;;
7729;SDS011;3908;52.310;7.230;2023-08-06T06:50:20;96.47;;;91.87;;
7729;SDS011;3908;52.310;7.230;2023-08-06T06:53:06;80.93;;;76.97;;
7729;SDS011;3908;52.310;7.230;2023-08-06T06:55:55;69.10;;;65.60;;
7729;SDS011;3908;52.310;7.230;2023-08-06T06:58:41;92.83;;;88.07;;
7729;SDS011;3908;52.310;7.230;2023-08-06T07:01:28;99.93;;;94.83;;
7729;SDS011;3908;52.310;7.230;2023-08-06T07:04:15;80.33;;;76.23;;
7729;SDS011;3908;52.310;7.230;2023-08-06T07:07:02;90.23;;;85.67;;
7729;SDS011;3908;52.310;7.230;2023-08-06T07:09:48;92.10;;;87.60;;
7729;SDS011;3908;52.310;7.230;2023-08-06T07:12:36;86.77;;;82.23;;
7729;SDS011;3908;52.310;7.230;2023-08-06T07:15:23;88.93;;;84.23;;
7729;SDS011;3908;52.310;7.230;2023-08-06T07:18:10;123.90;;;117.47;;
7729;SDS011;3908;52.310;7.230;2023-08-06T07:20:57;124.30;;;117.57;;
7729;SDS011;3908;52.310;7.230;2023-08-06T07:23:43;129.77;;;122.63;;
7729;SDS011;3908;52.310;7.230;2023-08-06T07:26:30;115.60;;;109.53;;
7729;SDS011;3908;52.310;7.230;2023-08-06T07:29:18;116.17;;;109.93;;
7729;SDS011;3908;52.310;7.230;2023-08-06T07:32:07;117.97;;;111.53;;
7729;SDS011;3908;52.310;7.230;2023-08-06T07:34:54;135.87;;;128.53;;
7729;SDS011;3908;52.310;7.230;2023-08-06T07:37:44;131.97;;;124.30;;
7729;SDS011;3908;52.310;7.230;2023-08-06T07:40:31;117.43;;;110.87;;
7729;SDS011;3908;52.310;7.230;2023-08-06T07:43:18;99.63;;;94.10;;
7729;SDS011;3908;52.310;7.230;2023-08-06T07:46:06;113.83;;;107.30;;
7729;SDS011;3908;52.310;7.230;2023-08-06T07:48:53;98.57;;;93.03;;
7729;SDS011;3908;52.310;7.230;2023-08-06T07:51:40;119.63;;;113.07;;
7729;SDS011;3908;52.310;7.230;2023-08-06T07:54:26;124.70;;;117.57;;
7729;SDS011;3908;52.310;7.230;2023-08-06T07:57:14;109.13;;;103.10;;
7729;SDS011;3908;52.310;7.230;2023-08-06T08:00:01;99.47;;;94.27;;
7729;SDS011;3908;52.310;7.230;2023-08-06T08:02:50;78.83;;;74.47;;
7729;SDS011;3908;52.310;7.230;2023-08-06T08:05:37;77.27;;;73.10;;
7729;SDS011;3908;52.310;7.230;2023-08-06T08:08:24;92.53;;;87.43;;
7729;SDS011;3908;52.310;7.230;2023-08-06T08:11:10;79.77;;;75.37;;
7729;SDS011;3908;52.310;7.230;2023-08-06T08:13:57;105.03;;;99.00;;
7729;SDS011;3908;52.310;7.230;2023-08-06T08:16:44;98.50;;;93.37;;
7729;SDS011;3908;52.310;7.230;2023-08-06T08:19:32;110.30;;;104.67;;
7729;SDS011;3908;52.310;7.230;2023-08-06T08:22:19;93.50;;;88.43;;
7729;SDS011;3908;52.310;7.230;2023-08-06T08:25:06;77.10;;;72.80;;
7729;SDS011;3908;52.310;7.230;2023-08-06T08:27:52;77.33;;;73.23;;
7729;SDS011;3908;52.310;7.230;2023-08-06T08:30:40;79.13;;;74.87;;
7729;SDS011;3908;52.310;7.230;2023-08-06T08:33:27;78.10;;;73.57;;
7729;SDS011;3908;52.310;7.230;2023-08-06T08:36:15;86.73;;;82.13;;
7729;SDS011;3908;52.310;7.230;2023-08-06T08:39:02;60.33;;;56.93;;
7729;SDS011;3908;52.310;7.230;2023-08-06T08:41:49;92.13;;;87.40;;
7729;SDS011;3908;52.310;7.230;2023-08-06T08:44:36;123.93;;;117.07;;
7729;SDS011;3908;52.310;7.230;2023-08-06T08:47:24;106.40;;;100.37;;
7729;SDS011;3908;52.310;7.230;2023-08-06T08:50:11;103.30;;;97.57;;
7729;SDS011;3908;52.310;7.230;2023-08-06T08:53:01;129.50;;;122.00;;
7729;SDS011;3908;52.310;7.230;2023-08-06T08:55:48;105.83;;;99.87;;
7729;SDS011;3908;52.310;7.230;2023-08-06T08:58:35;111.47;;;104.50;;
7729;SDS011;3908;52.310;7.230;2023-08-06T09:01:22;114.13;;;107.33;;
7729;SDS011;3908;52.310;7.230;2023-08-06T09:04:09;86.60;;;81.50;;
7729;SDS011;3908;52.310;7.230;2023-08-06T09:06:57;64.63;;;60.40;;
7729;SDS011;3908;52.310;7.230;2023-08-06T09:09:46;71.67;;;67.50;;
7729;SDS011;3908;52.310;7.230;2023-08-06T09:12:33;63.40;;;59.50;;
7729;SDS011;3908;52.310;7.230;2023-08-06T09:15:20;64.97;;;61.33;;
7729;SDS011;3908;52.310;7.230;2023-08-06T09:18:09;58.10;;;54.70;;
7729;SDS011;3908;52.310;7.230;2023-08-06T09:20:57;77.97;;;73.83;;
7729;SDS011;3908;52.310;7.230;2023-08-06T09:23:44;69.03;;;65.23;;
7729;SDS011;3908;52.310;7.230;2023-08-06T09:26:34;74.43;;;70.63;;
7729;SDS011;3908;52.310;7.230;2023-08-06T09:29:21;58.87;;;55.67;;
7729;SDS011;3908;52.310;7.230;2023-08-06T09:32:07;51.83;;;49.13;;
7729;SDS011;3908;52.310;7.230;2023-08-06T09:34:55;45.73;;;43.20;;
7729;SDS011;3908;52.310;7.230;2023-08-06T09:37:42;59.17;;;55.80;;
7729;SDS011;3908;52.310;7.230;2023-08-06T09:40:29;104.87;;;99.17;;
7729;SDS011;3908;52.310;7.230;2023-08-06T09:43:20;104.83;;;99.13;;
7729;SDS011;3908;52.310;7.230;2023-08-06T09:46:10;86.00;;;81.30;;
7729;SDS011;3908;52.310;7.230;2023-08-06T09:48:58;87.90;;;83.50;;
7729;SDS011;3908;52.310;7.230;2023-08-06T09:51:45;108.47;;;102.80;;
7729;SDS011;3908;52.310;7.230;2023-08-06T09:54:32;90.30;;;85.30;;
7729;SDS011;3908;52.310;7.230;2023-08-06T09:57:19;80.43;;;76.33;;
7729;SDS011;3908;52.310;7.230;2023-08-06T10:00:08;73.03;;;69.53;;
7729;SDS011;3908;52.310;7.230;2023-08-06T10:02:59;103.20;;;98.43;;
7729;SDS011;3908;52.310;7.230;2023-08-06T10:05:46;29.38;;;27.50;;
7729;SDS011;3908;52.310;7.230;2023-08-06T10:08:33;96.57;;;91.20;;
7729;SDS011;3908;52.310;7.230;2023-08-06T10:11:20;180.82;;;170.30;;
7729;SDS011;3908;52.310;7.230;2023-08-06T10:14:08;144.10;;;136.07;;
7729;SDS011;3908;52.310;7.230;2023-08-06T10:16:58;118.35;;;112.60;;
7729;SDS011;3908;52.310;7.230;2023-08-06T10:19:45;75.63;;;72.03;;
7729;SDS011;3908;52.310;7.230;2023-08-06T10:22:32;55.85;;;53.22;;
7729;SDS011;3908;52.310;7.230;2023-08-06T10:25:19;54.75;;;52.03;;
7729;SDS011;3908;52.310;7.230;2023-08-06T10:28:09;59.22;;;56.33;;
7729;SDS011;3908;52.310;7.230;2023-08-06T10:30:56;47.83;;;45.38;;
7729;SDS011;3908;52.310;7.230;2023-08-06T10:33:45;59.40;;;56.55;;
7729;SDS011;3908;52.310;7.230;2023-08-06T10:36:32;123.47;;;117.72;;
7729;SDS011;3908;52.310;7.230;2023-08-06T10:39:19;94.70;;;89.97;;
7729;SDS011;3908;52.310;7.230;2023-08-06T10:42:06;86.60;;;82.32;;
7729;SDS011;3908;52.310;7.230;2023-08-06T10:45:12;71.20;;;67.60;;
7729;SDS011;3908;52.310;7.230;2023-08-06T10:47:59;55.13;;;52.23;;
7729;SDS011;3908;52.310;7.230;2023-08-06T10:50:47;60.63;;;57.43;;
7729;SDS011;3908;52.310;7.230;2023-08-06T10:53:34;59.63;;;56.80;;
7729;SDS011;3908;52.310;7.230;2023-08-06T10:56:21;62.87;;;59.30;;
7729;SDS011;3908;52.310;7.230;2023-08-06T10:59:08;55.20;;;52.27;;
7729;SDS011;3908;52.310;7.230;2023-08-06T11:01:56;52.60;;;49.90;;
7729;SDS011;3908;52.310;7.230;2023-08-06T11:04:43;37.30;;;35.30;;
7729;SDS011;3908;52.310;7.230;2023-08-06T11:07:31;74.87;;;70.97;;
7729;SDS011;3908;52.310;7.230;2023-08-06T11:10:18;55.05;;;52.20;;
7729;SDS011;3908;52.310;7.230;2023-08-06T11:13:05;107.35;;;102.07;;
7729;SDS011;3908;52.310;7.230;2023-08-06T11:15:53;112.30;;;106.67;;
7729;SDS011;3908;52.310;7.230;2023-08-06T11:18:40;101.93;;;96.93;;
7729;SDS011;3908;52.310;7.230;2023-08-06T11:21:27;157.20;;;149.77;;
7729;SDS011;3908;52.310;7.230;2023-08-06T11:24:16;130.07;;;124.10;;
7729;SDS011;3908;52.310;7.230;2023-08-06T11:27:02;161.52;;;153.55;;
7729;SDS011;3908;52.310;7.230;2023-08-06T11:29:57;199.00;;;189.13;;
7729;SDS011;3908;52.310;7.230;2023-08-06T11:32:47;225.88;;;213.85;;
7729;SDS011;3908;52.310;7.230;2023-08-06T11:35:34;180.43;;;171.85;;
7729;SDS011;3908;52.310;7.230;2023-08-06T11:38:21;183.90;;;175.00;;
7729;SDS011;3908;52.310;7.230;2023-08-06T11:41:09;213.93;;;203.63;;
7729;SDS011;3908;52.310;7.230;2023-08-06T11:43:55;202.57;;;192.88;;
7729;SDS011;3908;52.310;7.230;2023-08-06T11:46:52;227.23;;;216.15;;
7729;SDS011;3908;52.310;7.230;2023-08-06T11:49:41;232.00;;;220.48;;
7729;SDS011;3908;52.310;7.230;2023-08-06T11:52:30;237.52;;;225.63;;
7729;SDS011;3908;52.310;7.230;2023-08-06T11:55:17;238.88;;;227.27;;
7729;SDS011;3908;52.310;7.230;2023-08-06T11:58:06;173.75;;;165.48;;
7729;SDS011;3908;52.310;7.230;2023-08-06T12:00:52;120.72;;;115.20;;
7729;SDS011;3908;52.310;7.230;2023-08-06T12:03:41;121.43;;;115.82;;
7729;SDS011;3908;52.310;7.230;2023-08-06T12:06:28;98.28;;;93.90;;
7729;SDS011;3908;52.310;7.230;2023-08-06T12:09:15;119.38;;;113.97;;
7729;SDS011;3908;52.310;7.230;2023-08-06T12:12:02;118.72;;;113.18;;
7729;SDS011;3908;52.310;7.230;2023-08-06T12:14:51;81.40;;;77.22;;
7729;SDS011;3908;52.310;7.230;2023-08-06T12:17:38;95.07;;;90.82;;
7729;SDS011;3908;52.310;7.230;2023-08-06T12:20:25;102.78;;;98.07;;
7729;SDS011;3908;52.310;7.230;2023-08-06T12:23:12;108.70;;;104.00;;
7729;SDS011;3908;52.310;7.230;2023-08-06T12:26:00;122.90;;;117.63;;
7729;SDS011;3908;52.310;7.230;2023-08-06T12:28:47;130.65;;;125.00;;
7729;SDS011;3908;52.310;7.230;2023-08-06T12:31:36;121.25;;;116.00;;
7729;SDS011;3908;52.310;7.230;2023-08-06T12:34:23;135.13;;;128.95;;
7729;SDS011;3908;52.310;7.230;2023-08-06T12:37:10;144.70;;;137.82;;
7729;SDS011;3908;52.310;7.230;2023-08-06T12:39:56;176.10;;;167.35;;
7729;SDS011;3908;52.310;7.230;2023-08-06T12:42:43;147.18;;;140.23;;
7729;SDS011;3908;52.310;7.230;2023-08-06T12:45:30;144.93;;;138.13;;
7729;SDS011;3908;52.310;7.230;2023-08-06T12:48:18;144.95;;;138.52;;
7729;SDS011;3908;52.310;7.230;2023-08-06T12:51:05;157.73;;;150.23;;
7729;SDS011;3908;52.310;7.230;2023-08-06T12:53:52;200.30;;;190.40;;
7729;SDS011;3908;52.310;7.230;2023-08-06T12:56:38;172.68;;;164.70;;
7729;SDS011;3908;52.310;7.230;2023-08-06T12:59:25;165.90;;;158.65;;
7729;SDS011;3908;52.310;7.230;2023-08-06T13:02:12;178.25;;;169.95;;
7729;SDS011;3908;52.310;7.230;2023-08-06T13:05:00;187.38;;;178.43;;
7729;SDS011;3908;52.310;7.230;2023-08-06T13:07:50;171.63;;;163.63;;
7729;SDS011;3908;52.310;7.230;2023-08-06T13:10:37;184.90;;;176.43;;
7729;SDS011;3908;52.310;7.230;2023-08-06T13:13:24;193.80;;;184.43;;
7729;SDS011;3908;52.310;7.230;2023-08-06T13:16:12;216.90;;;205.65;;
7729;SDS011;3908;52.310;7.230;2023-08-06T13:18:59;147.68;;;140.82;;
7729;SDS011;3908;52.310;7.230;2023-08-06T13:21:59;186.88;;;176.90;;
7729;SDS011;3908;52.310;7.230;2023-08-06T13:24:47;312.65;;;295.67;;
7729;SDS011;3908;52.310;7.230;2023-08-06T13:27:34;337.73;;;319.55;;
7729;SDS011;3908;52.310;7.230;2023-08-06T13:30:20;338.35;;;320.15;;
7729;SDS011;3908;52.310;7.230;2023-08-06T13:33:08;325.17;;;307.20;;
7729;SDS011;3908;52.310;7.230;2023-08-06T13:35:55;242.40;;;228.88;;
7729;SDS011;3908;52.310;7.230;2023-08-06T13:38:43;312.92;;;295.67;;
7729;SDS011;3908;52.310;7.230;2023-08-06T13:41:30;311.25;;;295.92;;
7729;SDS011;3908;52.310;7.230;2023-08-06T13:44:17;357.52;;;339.13;;
7729;SDS011;3908;52.310;7.230;2023-08-06T13:47:03;343.70;;;325.70;;
7729;SDS011;3908;52.310;7.230;2023-08-06T13:49:50;335.40;;;316.80;;
7729;SDS011;3908;52.310;7.230;2023-08-06T13:52:37;188.00;;;177.30;;
7729;SDS011;3908;52.310;7.230;2023-08-06T13:55:25;143.98;;;137.52;;
7729;SDS011;3908;52.310;7.230;2023-08-06T13:58:12;149.38;;;142.73;;
7729;SDS011;3908;52.310;7.230;2023-08-06T14:00:59;159.23;;;150.52;;
7729;SDS011;3908;52.310;7.230;2023-08-06T14:03:46;161.55;;;152.95;;
7729;SDS011;3908;52.310;7.230;2023-08-06T14:06:33;184.75;;;176.98;;
7729;SDS011;3908;52.310;7.230;2023-08-06T14:09:20;180.45;;;171.93;;
7729;SDS011;3908;52.310;7.230;2023-08-06T14:12:08;170.23;;;162.40;;
7729;SDS011;3908;52.310;7.230;2023-08-06T14:14:54;192.05;;;183.07;;
7729;SDS011;3908;52.310;7.230;2023-08-06T14:17:41;195.20;;;186.30;;
7729;SDS011;3908;52.310;7.230;2023-08-06T14:20:28;203.73;;;194.27;;
7729;SDS011;3908;52.310;7.230;2023-08-06T14:23:16;200.70;;;191.02;;
7729;SDS011;3908;52.310;7.230;2023-08-06T14:26:03;157.27;;;149.15;;
7729;SDS011;3908;52.310;7.230;2023-08-06T14:28:51;175.48;;;166.73;;
7729;SDS011;3908;52.310;7.230;2023-08-06T14:31:40;153.05;;;145.48;;
7729;SDS011;3908;52.310;7.230;2023-08-06T14:34:27;180.18;;;170.13;;
7729;SDS011;3908;52.310;7.230;2023-08-06T14:37:14;253.07;;;240.63;;
7729;SDS011;3908;52.310;7.230;2023-08-06T14:40:00;286.35;;;272.42;;
7729;SDS011;3908;52.310;7.230;2023-08-06T14:42:47;312.45;;;296.83;;
7729;SDS011;3908;52.310;7.230;2023-08-06T14:45:38;281.40;;;266.85;;
7729;SDS011;3908;52.310;7.230;2023-08-06T14:48:25;347.45;;;328.13;;
7729;SDS011;3908;52.310;7.230;2023-08-06T14:51:14;255.93;;;240.95;;
7729;SDS011;3908;52.310;7.230;2023-08-06T14:54:01;331.67;;;312.10;;
7729;SDS011;3908;52.310;7.230;2023-08-06T14:56:48;373.75;;;350.67;;
7729;SDS011;3908;52.310;7.230;2023-08-06T14:59:34;418.88;;;393.35;;
7729;SDS011;3908;52.310;7.230;2023-08-06T15:02:23;423.88;;;398.27;;
7729;SDS011;3908;52.310;7.230;2023-08-06T15:05:09;348.10;;;329.05;;
7729;SDS011;3908;52.310;7.230;2023-08-06T15:07:56;253.15;;;240.38;;
7729;SDS011;3908;52.310;7.230;2023-08-06T15:10:49;308.88;;;292.50;;
7729;SDS011;3908;52.310;7.230;2023-08-06T15:13:36;411.10;;;385.92;;
7729;SDS011;3908;52.310;7.230;2023-08-06T15:16:22;409.20;;;385.00;;
7729;SDS011;3908;52.310;7.230;2023-08-06T15:19:10;365.48;;;345.30;;
7729;SDS011;3908;52.310;7.230;2023-08-06T15:21:57;361.03;;;339.67;;
7729;SDS011;3908;52.310;7.230;2023-08-06T15:24:44;231.97;;;218.80;;
7729;SDS011;3908;52.310;7.230;2023-08-06T15:27:31;167.10;;;158.25;;
7729;SDS011;3908;52.310;7.230;2023-08-06T15:30:19;125.90;;;119.65;;
7729;SDS011;3908;52.310;7.230;2023-08-06T15:33:06;67.20;;;63.88;;
7729;SDS011;3908;52.310;7.230;2023-08-06T15:35:54;117.75;;;112.18;;
7729;SDS011;3908;52.310;7.230;2023-08-06T15:38:41;170.57;;;162.48;;
7729;SDS011;3908;52.310;7.230;2023-08-06T15:41:28;132.57;;;126.57;;
7729;SDS011;3908;52.310;7.230;2023-08-06T15:44:14;99.63;;;95.13;;
7729;SDS011;3908;52.310;7.230;2023-08-06T15:47:01;168.57;;;161.30;;
7729;SDS011;3908;52.310;7.230;2023-08-06T15:49:48;136.87;;;130.57;;
7729;SDS011;3908;52.310;7.230;2023-08-06T15:52:36;92.37;;;87.90;;
7729;SDS011;3908;52.310;7.230;2023-08-06T15:55:23;57.63;;;54.53;;
7729;SDS011;3908;52.310;7.230;2023-08-06T15:58:10;43.63;;;41.43;;
7729;SDS011;3908;52.310;7.230;2023-08-06T16:00:56;36.50;;;34.73;;
7729;SDS011;3908;52.310;7.230;2023-08-06T16:03:44;34.80;;;32.90;;
7729;SDS011;3908;52.310;7.230;2023-08-06T16:06:31;41.13;;;39.03;;
7729;SDS011;3908;52.310;7.230;2023-08-06T16:09:19;39.90;;;37.93;;
7729;SDS011;3908;52.310;7.230;2023-08-06T16:12:08;47.23;;;44.83;;
7729;SDS011;3908;52.310;7.230;2023-08-06T16:14:55;62.10;;;59.20;;
7729;SDS011;3908;52.310;7.230;2023-08-06T16:17:41;85.57;;;81.73;;
7729;SDS011;3908;52.310;7.230;2023-08-06T16:20:28;87.87;;;84.03;;
7729;SDS011;3908;52.310;7.230;2023-08-06T16:23:15;90.00;;;86.10;;
7729;SDS011;3908;52.310;7.230;2023-08-06T16:26:03;45.17;;;42.83;;
7729;SDS011;3908;52.310;7.230;2023-08-06T16:28:50;42.43;;;39.77;;